Time;durP1;ratioP1;P1;durP2;ratioP2;P2;SDS_P1;SDS_P2;PMS_P1;PMS_P2;Temp;Humidity;BMP_temperature;BMP_pressure;BME280_temperature;BME280_humidity;BME280_pressure;Samples;Min_cycle;Max_cycle;Signal;HPM_P1;HPM_P2
2021/12/27 00:00:31;;;;;;;42.20;25.97;;;;;;;1.95;90.85;100169.03;5063482;28;20036;-84
2021/12/27 00:03:00;;;;;;;40.93;26.47;;;;;;;1.97;91.00;100169.88;5053327;28;20434;-84
2021/12/27 00:05:25;;;;;;;40.23;25.20;;;;;;;1.97;91.03;100167.31;5052083;28;20028;-84
2021/12/27 00:07:53;;;;;;;38.93;25.73;;;;;;;1.97;90.95;100162.19;5062588;28;20033;-84
2021/12/27 00:10:20;;;;;;;40.43;25.73;;;;;;;1.99;91.16;100161.31;5053082;28;20103;-84
2021/12/27 00:12:45;;;;;;;39.23;26.20;;;;;;;2.01;90.93;100164.75;5053229;28;20805;-84
2021/12/27 00:15:13;;;;;;;41.77;26.87;;;;;;;2.01;91.67;100162.19;5053046;28;20487;-84
2021/12/27 00:17:39;;;;;;;43.17;26.40;;;;;;;2.02;91.19;100154.47;5036339;28;20025;-84
2021/12/27 00:20:06;;;;;;;40.37;26.57;;;;;;;2.02;91.42;100158.75;5063106;28;20469;-84
2021/12/27 00:22:32;;;;;;;41.77;26.17;;;;;;;2.05;91.37;100153.63;5053191;28;20037;-84
2021/12/27 00:24:57;;;;;;;40.07;26.47;;;;;;;2.06;91.48;100155.31;5060907;28;20032;-84
2021/12/27 00:27:22;;;;;;;39.90;25.43;;;;;;;2.08;91.55;100151.03;5051696;28;20325;-84
2021/12/27 00:29:47;;;;;;;40.63;25.33;;;;;;;2.07;91.43;100154.47;5056455;28;20106;-84
2021/12/27 00:32:13;;;;;;;39.70;25.07;;;;;;;2.07;91.47;100150.19;5060257;28;20075;-84
2021/12/27 00:34:38;;;;;;;37.40;24.83;;;;;;;2.08;91.46;100145.91;5060976;28;20464;-84
2021/12/27 00:37:05;;;;;;;39.33;24.87;;;;;;;2.09;91.50;100145.03;5060562;28;20020;-84
2021/12/27 00:39:30;;;;;;;41.07;24.90;;;;;;;2.11;91.50;100145.91;5057009;28;20025;-84
2021/12/27 00:41:56;;;;;;;37.17;24.80;;;;;;;2.11;91.76;100138.22;5061500;28;20028;-84
2021/12/27 00:44:21;;;;;;;38.63;25.50;;;;;;;2.12;91.50;100150.19;5061146;28;20099;-84
2021/12/27 00:46:46;;;;;;;36.33;23.83;;;;;;;2.12;91.44;100139.91;5060625;28;20028;-84
2021/12/27 00:49:11;;;;;;;38.53;24.43;;;;;;;2.13;91.65;100136.50;5056223;28;20108;-84
2021/12/27 00:51:37;;;;;;;37.37;23.73;;;;;;;2.12;92.01;100124.53;5058781;28;20029;-84
2021/12/27 00:54:02;;;;;;;36.10;23.23;;;;;;;2.12;91.79;100127.09;5062740;28;20031;-84
2021/12/27 00:56:27;;;;;;;36.73;23.80;;;;;;;2.15;91.66;100123.66;5054514;28;20083;-84
2021/12/27 00:58:53;;;;;;;36.23;23.63;;;;;;;2.15;91.71;100131.34;5056785;28;20464;-84
2021/12/27 01:01:18;;;;;;;36.27;24.30;;;;;;;2.15;91.69;100121.94;5054559;28;20078;-83
2021/12/27 01:03:43;;;;;;;36.07;24.37;;;;;;;2.16;91.88;100121.09;5056016;28;20062;-84
2021/12/27 01:06:08;;;;;;;35.63;22.77;;;;;;;2.16;91.83;100120.22;5057329;28;20020;-84
2021/12/27 01:08:36;;;;;;;37.90;23.60;;;;;;;2.18;91.83;100111.69;5062523;28;20025;-84
2021/12/27 01:11:24;;;;;;;36.63;23.37;;;;;;;2.17;91.99;100106.53;5060384;28;20114;-84
2021/12/27 01:14:11;;;;;;;34.07;22.53;;;;;;;2.17;91.87;100107.41;5052682;28;20467;-84
2021/12/27 01:16:39;;;;;;;33.90;22.67;;;;;;;2.20;91.95;100107.41;5039271;28;20029;-84
2021/12/27 01:19:06;;;;;;;36.30;23.17;;;;;;;2.18;91.87;100108.25;5055791;28;20463;-84
2021/12/27 01:21:31;;;;;;;37.97;23.13;;;;;;;2.18;91.86;100109.13;5064027;28;20450;-84
2021/12/27 01:23:57;;;;;;;35.63;23.07;;;;;;;2.21;92.03;100103.09;5057238;28;20487;-84
2021/12/27 01:26:25;;;;;;;36.27;23.53;;;;;;;2.22;91.98;100105.66;5062155;28;20020;-84
2021/12/27 01:28:51;;;;;;;37.70;22.53;;;;;;;2.23;92.09;100098.81;5039275;28;20025;-84
2021/12/27 01:31:16;;;;;;;34.90;22.60;;;;;;;2.21;92.02;100106.53;5062474;28;20070;-84
2021/12/27 01:33:44;;;;;;;36.73;23.37;;;;;;;2.25;92.26;100103.09;5059829;28;20040;-84
2021/12/27 01:36:10;;;;;;;34.73;23.37;;;;;;;2.26;92.23;100102.22;5053199;28;20030;-84
2021/12/27 01:38:36;;;;;;;35.57;22.73;;;;;;;2.28;92.16;100100.50;5058218;28;20028;-84
2021/12/27 01:41:04;;;;;;;34.87;22.60;;;;;;;2.31;92.17;100103.94;5058257;28;20020;-84
2021/12/27 01:43:31;;;;;;;33.50;22.13;;;;;;;2.26;92.10;100084.25;5054144;28;20353;-84
2021/12/27 01:46:06;;;;;;;39.43;23.50;;;;;;;2.31;92.17;100098.81;5058357;28;20096;-84
2021/12/27 01:48:37;;;;;;;35.50;23.27;;;;;;;2.28;91.85;100097.13;5054833;28;20036;-84
2021/12/27 01:51:04;;;;;;;36.03;23.02;;;;;;;2.33;92.23;100091.94;5057709;28;20035;-84
2021/12/27 01:53:32;;;;;;;33.93;22.67;;;;;;;2.33;92.16;100094.53;5057376;28;20055;-84
2021/12/27 01:55:58;;;;;;;33.97;22.27;;;;;;;2.33;92.18;100091.94;5043432;28;20035;-84
2021/12/27 01:58:24;;;;;;;34.50;22.50;;;;;;;2.33;92.22;100082.53;5058928;28;20395;-84
2021/12/27 02:00:53;;;;;;;33.07;22.50;;;;;;;2.33;92.23;100091.94;5055381;28;20029;-84
2021/12/27 02:03:20;;;;;;;35.33;22.67;;;;;;;2.35;92.04;100091.06;5059340;28;20025;-84
2021/12/27 02:05:46;;;;;;;35.43;22.87;;;;;;;2.36;92.39;100086.81;5052597;28;20031;-84
2021/12/27 02:08:12;;;;;;;35.03;22.83;;;;;;;2.37;92.14;100089.34;5054257;28;20035;-84
2021/12/27 02:10:38;;;;;;;36.47;23.07;;;;;;;2.39;92.15;100090.22;5061450;28;20039;-84
2021/12/27 02:13:04;;;;;;;34.70;22.40;;;;;;;2.40;92.51;100088.47;5060602;28;20029;-84
2021/12/27 02:15:29;;;;;;;34.67;21.87;;;;;;;2.39;92.32;100086.81;5060495;28;20036;-84
2021/12/27 02:17:56;;;;;;;33.93;22.70;;;;;;;2.40;92.37;100088.47;5053194;28;20078;-84
2021/12/27 02:20:30;;;;;;;33.27;22.23;;;;;;;2.40;92.42;100088.47;5055503;28;20032;-84
2021/12/27 02:23:01;;;;;;;36.00;22.80;;;;;;;2.42;92.18;100082.50;5053446;28;20041;-84
2021/12/27 02:25:28;;;;;;;34.67;21.90;;;;;;;2.44;92.30;100090.19;5057099;28;20464;-84
2021/12/27 02:27:55;;;;;;;34.30;22.70;;;;;;;2.45;92.38;100093.63;5058842;28;20029;-84
2021/12/27 02:30:22;;;;;;;32.97;22.30;;;;;;;2.46;92.37;100083.34;5056102;28;20475;-84
2021/12/27 02:32:50;;;;;;;35.30;22.70;;;;;;;2.46;92.21;100091.03;5062500;28;20082;-84
2021/12/27 02:35:38;;;;;;;32.73;22.10;;;;;;;2.48;92.44;100081.63;5060606;28;20071;-84
2021/12/27 02:38:04;;;;;;;35.27;22.57;;;;;;;2.47;92.48;100074.78;5050899;28;20476;-84
2021/12/27 02:40:30;;;;;;;34.73;22.67;;;;;;;2.47;92.50;100079.91;5056036;28;20036;-84
2021/12/27 02:43:01;;;;;;;33.33;21.90;;;;;;;2.45;92.41;100066.22;5037957;28;20020;-84
2021/12/27 02:45:28;;;;;;;35.47;22.47;;;;;;;2.46;92.65;100070.50;5054104;28;20558;-84
2021/12/27 02:47:54;;;;;;;33.57;22.53;;;;;;;2.44;92.85;100064.50;5050693;28;20025;-84
2021/12/27 02:50:20;;;;;;;33.57;22.57;;;;;;;2.47;92.85;100067.06;5052538;28;20368;-84
2021/12/27 02:52:46;;;;;;;36.33;22.73;;;;;;;2.46;92.80;100070.50;5051507;28;20107;-84
2021/12/27 02:55:15;;;;;;;34.23;23.07;;;;;;;2.49;93.00;100067.91;5050501;28;20027;-84
2021/12/27 02:57:41;;;;;;;36.47;22.87;;;;;;;2.51;92.81;100066.19;5054769;28;20025;-84
2021/12/27 03:00:15;;;;;;;36.20;23.17;;;;;;;2.54;92.78;100063.63;5052867;28;20474;-84
2021/12/27 03:02:45;;;;;;;35.63;22.90;;;;;;;2.54;92.92;100053.34;5051306;28;20078;-84
2021/12/27 03:05:13;;;;;;;35.07;22.50;;;;;;;2.55;93.06;100059.31;5053327;28;20094;-84
2021/12/27 03:07:40;;;;;;;35.83;22.93;;;;;;;2.53;92.98;100051.66;5051354;28;20036;-84
2021/12/27 03:10:07;;;;;;;35.43;22.93;;;;;;;2.57;92.86;100058.44;5050718;28;20036;-84
2021/12/27 03:12:33;;;;;;;36.80;23.47;;;;;;;2.60;92.91;100055.03;5052538;28;20028;-84
2021/12/27 03:14:58;;;;;;;36.23;23.50;;;;;;;2.62;93.10;100057.56;5050849;28;20029;-84
2021/12/27 03:17:24;;;;;;;36.70;24.10;;;;;;;2.64;92.97;100055.84;5051360;28;20029;-84
2021/12/27 03:19:49;;;;;;;34.20;23.17;;;;;;;2.64;93.06;100045.59;5050914;28;20045;-84
2021/12/27 03:22:14;;;;;;;37.27;23.70;;;;;;;2.66;92.99;100044.69;5051472;28;20040;-84
2021/12/27 03:24:39;;;;;;;35.87;23.03;;;;;;;2.65;92.90;100048.13;5058057;28;20032;-84
2021/12/27 03:27:05;;;;;;;35.60;23.70;;;;;;;2.68;93.22;100047.28;5055880;28;20055;-84
2021/12/27 03:29:30;;;;;;;37.00;23.83;;;;;;;2.70;92.88;100048.13;5056983;28;20032;-84
2021/12/27 03:31:57;;;;;;;34.90;22.93;;;;;;;2.70;92.68;100048.13;5054846;28;20025;-84
2021/12/27 03:34:23;;;;;;;38.00;24.00;;;;;;;2.71;92.72;100052.41;5037724;28;20488;-84
2021/12/27 03:36:48;;;;;;;35.80;23.97;;;;;;;2.69;92.89;100048.97;5054678;28;20106;-84
2021/12/27 03:39:14;;;;;;;35.87;22.70;;;;;;;2.73;92.87;100050.69;5055565;28;20017;-84
2021/12/27 03:41:40;;;;;;;36.00;23.47;;;;;;;2.71;92.98;100048.09;5037977;28;20033;-84
2021/12/27 03:44:06;;;;;;;35.63;23.00;;;;;;;2.72;92.82;100039.53;5055913;28;20032;-84
2021/12/27 03:46:31;;;;;;;35.93;24.03;;;;;;;2.75;93.25;100042.94;5057486;28;20028;-84
2021/12/27 03:48:56;;;;;;;34.37;22.20;;;;;;;2.74;93.33;100036.94;5054645;28;20529;-84
2021/12/27 03:51:22;;;;;;;36.37;23.90;;;;;;;2.75;93.15;100036.09;5054190;28;20520;-84
2021/12/27 03:53:48;;;;;;;36.87;24.00;;;;;;;2.76;93.14;100032.66;5055097;28;20117;-84
2021/12/27 03:56:13;;;;;;;36.23;23.73;;;;;;;2.77;93.37;100028.38;5053784;28;20025;-84
2021/12/27 03:58:56;;;;;;;35.33;23.17;;;;;;;2.78;93.44;100032.66;5054629;28;20021;-84
2021/12/27 04:01:23;;;;;;;33.50;23.47;;;;;;;2.78;93.39;100020.66;5054133;28;20054;-84
2021/12/27 04:03:52;;;;;;;35.87;22.53;;;;;;;2.81;93.61;100025.78;5037008;28;20033;-84
2021/12/27 04:06:20;;;;;;;33.83;22.67;;;;;;;2.81;93.38;100018.06;5054486;28;20051;-84
2021/12/27 04:08:45;;;;;;;36.30;24.33;;;;;;;2.81;93.29;100012.09;5055673;28;20033;-84
2021/12/27 04:11:11;;;;;;;34.30;23.40;;;;;;;2.81;93.38;100015.50;5053582;28;20021;-84
2021/12/27 04:13:36;;;;;;;32.87;22.53;;;;;;;2.82;93.79;100008.66;5054068;28;20434;-84
2021/12/27 04:16:02;;;;;;;36.00;23.10;;;;;;;2.84;93.58;100002.63;5053636;28;20068;-84
2021/12/27 04:18:27;;;;;;;34.70;22.53;;;;;;;2.85;93.74;100009.47;5060162;28;20090;-84
2021/12/27 04:20:53;;;;;;;32.67;22.70;;;;;;;2.84;93.56;100005.22;5053525;28;20083;-84
2021/12/27 04:23:18;;;;;;;34.80;22.73;;;;;;;2.86;93.74;99998.34;5054744;28;20056;-84
2021/12/27 04:25:43;;;;;;;35.87;23.93;;;;;;;2.88;93.90;100000.88;5057434;28;20083;-84
2021/12/27 04:28:09;;;;;;;35.97;23.20;;;;;;;2.88;93.97;99996.63;5060293;28;20365;-84
2021/12/27 04:30:34;;;;;;;35.13;22.67;;;;;;;2.91;94.12;99994.88;5058103;28;20025;-84
2021/12/27 04:33:00;;;;;;;33.17;21.97;;;;;;;2.92;93.82;99983.72;5053962;28;20021;-84
2021/12/27 04:35:25;;;;;;;35.40;23.03;;;;;;;2.93;93.85;99976.03;5053281;28;20059;-84
2021/12/27 04:37:51;;;;;;;36.20;22.77;;;;;;;2.93;93.96;99985.44;5054286;28;20083;-84
2021/12/27 04:40:19;;;;;;;35.13;23.07;;;;;;;2.93;93.83;99985.44;5053795;28;20040;-84
2021/12/27 04:42:49;;;;;;;35.53;21.93;;;;;;;2.92;94.27;99981.16;5053392;28;20493;-84
2021/12/27 04:45:14;;;;;;;33.90;22.53;;;;;;;2.92;94.11;99971.75;5053744;28;20021;-84
2021/12/27 04:47:41;;;;;;;34.03;22.80;;;;;;;2.93;93.94;99970.00;5054109;28;20029;-84
2021/12/27 04:50:06;;;;;;;36.00;23.07;;;;;;;2.93;94.41;99975.16;5054450;28;20028;-84
2021/12/27 04:52:32;;;;;;;33.20;22.57;;;;;;;2.97;94.30;99976.84;5053474;28;20021;-84
2021/12/27 04:54:57;;;;;;;33.10;22.67;;;;;;;2.97;94.24;99969.13;5056847;28;20176;-84
2021/12/27 04:57:22;;;;;;;33.07;21.80;;;;;;;2.98;94.43;99975.97;5055480;28;20090;-85
2021/12/27 04:59:47;;;;;;;35.50;22.13;;;;;;;2.98;94.23;99969.13;5054196;28;20374;-84
2021/12/27 05:02:13;;;;;;;32.97;22.03;;;;;;;3.01;94.35;99968.25;5054731;28;20021;-84
2021/12/27 05:04:38;;;;;;;34.20;22.37;;;;;;;3.02;94.46;99980.22;5053053;28;20033;-84
2021/12/27 05:07:04;;;;;;;32.80;22.73;;;;;;;3.05;94.22;99972.50;5056809;28;20025;-84
2021/12/27 05:09:29;;;;;;;32.00;21.33;;;;;;;3.08;94.15;99975.03;5053578;28;20606;-84
2021/12/27 05:11:54;;;;;;;33.10;21.60;;;;;;;3.08;94.27;99969.88;5055217;28;20017;-84
2021/12/27 05:14:19;;;;;;;32.17;22.13;;;;;;;3.09;94.25;99966.44;5054359;28;20051;-84
2021/12/27 05:16:45;;;;;;;34.80;22.03;;;;;;;3.11;94.23;99969.84;5051914;28;20021;-84
2021/12/27 05:19:10;;;;;;;32.23;21.97;;;;;;;3.13;94.41;99965.56;5054088;28;20029;-84
2021/12/27 05:21:35;;;;;;;30.53;20.87;;;;;;;3.14;94.26;99963.84;5052333;28;20036;-84
2021/12/27 05:24:01;;;;;;;32.47;21.10;;;;;;;3.14;94.17;99959.56;5054732;28;20063;-84
2021/12/27 05:26:26;;;;;;;31.93;20.60;;;;;;;3.16;94.28;99962.13;5040457;28;20119;-84
2021/12/27 05:28:51;;;;;;;30.57;21.37;;;;;;;3.18;94.42;99961.25;5060442;28;20032;-84
2021/12/27 05:31:17;;;;;;;30.97;21.33;;;;;;;3.16;94.35;99965.53;5051880;28;20526;-84
2021/12/27 05:33:42;;;;;;;30.27;20.30;;;;;;;3.20;94.11;99961.22;5053679;28;20025;-84
2021/12/27 05:36:08;;;;;;;29.87;20.83;;;;;;;3.20;94.30;99945.78;5052086;28;20039;-84
2021/12/27 05:38:33;;;;;;;32.97;20.83;;;;;;;3.18;94.46;99945.81;5053991;28;20479;-84
2021/12/27 05:40:58;;;;;;;30.97;20.67;;;;;;;3.18;94.41;99945.81;5061461;28;20024;-84
2021/12/27 05:43:26;;;;;;;31.87;20.93;;;;;;;3.18;94.41;99950.97;5056150;28;20435;-84
2021/12/27 05:45:51;;;;;;;30.83;21.23;;;;;;;3.20;94.85;99956.06;5052811;28;20020;-84
2021/12/27 05:48:17;;;;;;;30.83;21.80;;;;;;;3.21;94.79;99949.22;5052003;28;20409;-84
2021/12/27 05:50:43;;;;;;;29.37;20.70;;;;;;;3.21;94.87;99949.22;5051754;28;20028;-84
2021/12/27 05:53:08;;;;;;;31.03;20.60;;;;;;;3.22;94.97;99945.78;5052723;28;20024;-84
2021/12/27 05:55:34;;;;;;;30.43;21.13;;;;;;;3.24;95.00;99941.50;5051714;28;20032;-84
2021/12/27 05:58:00;;;;;;;29.00;20.63;;;;;;;3.27;94.89;99944.88;5052630;28;20028;-84
2021/12/27 06:00:26;;;;;;;28.63;20.87;;;;;;;3.25;94.87;99940.59;5054913;28;20021;-84
2021/12/27 06:02:53;;;;;;;28.63;20.03;;;;;;;3.29;94.74;99947.41;5053152;28;20487;-84
2021/12/27 06:05:19;;;;;;;28.90;20.40;;;;;;;3.29;95.05;99942.28;5036859;28;20036;-84
2021/12/27 06:07:44;;;;;;;29.23;20.80;;;;;;;3.30;94.91;99954.25;5051051;28;20033;-84
2021/12/27 06:10:10;;;;;;;28.23;20.37;;;;;;;3.33;94.93;99944.78;5052776;28;20499;-84
2021/12/27 06:12:36;;;;;;;29.83;20.83;;;;;;;3.33;95.07;99946.53;5056183;28;20067;-84
2021/12/27 06:15:02;;;;;;;30.77;21.40;;;;;;;3.36;95.11;99949.06;5051307;28;20063;-84
2021/12/27 06:17:27;;;;;;;29.57;20.50;;;;;;;3.37;95.59;99950.78;5052716;28;20021;-84
2021/12/27 06:19:52;;;;;;;28.47;20.10;;;;;;;3.40;95.57;99948.19;5053887;28;20044;-84
2021/12/27 06:22:18;;;;;;;29.60;20.00;;;;;;;3.38;95.62;99960.19;5055115;28;20022;-84
2021/12/27 06:24:43;;;;;;;30.33;20.83;;;;;;;3.40;95.33;99953.31;5053643;28;20078;-84
2021/12/27 06:27:09;;;;;;;29.73;20.23;;;;;;;3.42;95.34;99950.72;5053516;28;20021;-84
2021/12/27 06:29:34;;;;;;;30.07;20.13;;;;;;;3.42;95.40;99941.28;5052472;28;20552;-84
2021/12/27 06:31:59;;;;;;;30.77;19.87;;;;;;;3.44;95.55;99943.84;5052070;28;20021;-84
2021/12/27 06:34:25;;;;;;;29.67;19.63;;;;;;;3.46;95.61;99945.50;5052627;28;20033;-84
2021/12/27 06:36:50;;;;;;;30.77;19.90;;;;;;;3.48;95.75;99948.09;5051711;28;20024;-84
2021/12/27 06:39:15;;;;;;;28.57;19.97;;;;;;;3.46;95.45;99950.66;5051779;28;20034;-84
2021/12/27 06:41:41;;;;;;;27.43;18.93;;;;;;;3.47;95.89;99944.66;5051406;28;20387;-84
2021/12/27 06:44:06;;;;;;;27.57;19.03;;;;;;;3.49;95.69;99945.50;5053424;28;20033;-84
2021/12/27 06:46:32;;;;;;;26.80;18.37;;;;;;;3.49;95.26;99948.06;5052874;28;20029;-84
2021/12/27 06:48:57;;;;;;;27.27;18.93;;;;;;;3.52;95.79;99943.75;5051955;28;20083;-84
2021/12/27 06:51:22;;;;;;;27.87;19.27;;;;;;;3.52;95.38;99936.03;5055472;28;20119;-84
2021/12/27 06:53:48;;;;;;;29.90;19.33;;;;;;;3.54;95.49;99937.72;5053294;28;20058;-84
2021/12/27 06:56:13;;;;;;;29.90;19.37;;;;;;;3.55;95.76;99948.88;5051407;28;20075;-84
2021/12/27 06:58:38;;;;;;;26.90;18.87;;;;;;;3.55;95.35;99933.44;5052387;28;20456;-84
2021/12/27 07:01:04;;;;;;;27.53;19.03;;;;;;;3.58;95.41;99934.25;5056470;28;20392;-84
2021/12/27 07:03:30;;;;;;;25.73;17.83;;;;;;;3.58;95.31;99923.97;5057911;28;20147;-84
2021/12/27 07:05:55;;;;;;;28.00;19.00;;;;;;;3.59;95.32;99924.78;5055609;28;20047;-84
2021/12/27 07:08:22;;;;;;;26.53;18.50;;;;;;;3.60;95.66;99917.09;5054539;28;20181;-84
2021/12/27 07:10:48;;;;;;;28.33;19.27;;;;;;;3.61;95.24;99917.91;5037376;28;20028;-84
2021/12/27 07:13:13;;;;;;;27.53;18.87;;;;;;;3.60;95.71;99916.22;5056837;28;20021;-84
2021/12/27 07:15:41;;;;;;;26.60;18.80;;;;;;;3.63;95.53;99918.75;5055900;28;20029;-84
2021/12/27 07:18:08;;;;;;;25.37;17.87;;;;;;;3.63;95.32;99923.91;5055503;28;20013;-84
2021/12/27 07:20:34;;;;;;;24.97;18.00;;;;;;;3.64;95.14;99923.03;5038090;28;20379;-84
2021/12/27 07:22:59;;;;;;;25.73;18.17;;;;;;;3.64;95.07;99915.31;5055860;28;20049;-84
2021/12/27 07:25:25;;;;;;;24.97;18.10;;;;;;;3.67;95.28;99911.88;5055078;28;20049;-84
2021/12/27 07:27:50;;;;;;;28.67;19.00;;;;;;;3.65;95.27;99904.16;5054521;28;20029;-84
2021/12/27 07:30:16;;;;;;;31.87;19.40;;;;;;;3.66;95.34;99900.72;5056847;28;20480;-84
2021/12/27 07:32:41;;;;;;;28.27;18.77;;;;;;;3.66;95.49;99905.03;5054423;28;20047;-84
2021/12/27 07:35:07;;;;;;;26.37;18.30;;;;;;;3.65;95.49;99909.31;5057480;28;20029;-84
2021/12/27 07:37:32;;;;;;;27.60;18.27;;;;;;;3.65;95.65;99917.03;5055478;28;20043;-84
2021/12/27 07:39:58;;;;;;;27.73;18.23;;;;;;;3.65;95.38;99911.88;5054977;28;20035;-84
2021/12/27 07:42:23;;;;;;;25.47;17.93;;;;;;;3.66;95.18;99905.03;5054405;28;20028;-84
2021/12/27 07:44:48;;;;;;;26.37;18.47;;;;;;;3.67;95.40;99902.41;5055489;28;20047;-84
2021/12/27 07:47:14;;;;;;;26.27;17.53;;;;;;;3.67;95.48;99897.28;5055347;28;20467;-84
2021/12/27 07:49:40;;;;;;;27.77;18.60;;;;;;;3.67;95.45;99899.00;5053085;28;20045;-84
2021/12/27 07:52:06;;;;;;;26.97;17.27;;;;;;;3.61;95.00;99898.22;5053412;28;20033;-84
2021/12/27 07:54:32;;;;;;;28.80;17.70;;;;;;;3.63;95.03;99903.31;5057148;28;20102;-84
2021/12/27 07:56:57;;;;;;;26.13;17.93;;;;;;;3.61;95.28;99900.78;5061127;28;20459;-84
2021/12/27 07:59:22;;;;;;;28.27;18.07;;;;;;;3.62;95.36;99899.03;5058599;28;20036;-84
2021/12/27 08:01:47;;;;;;;26.17;18.00;;;;;;;3.63;95.13;99900.75;5056739;28;20045;-84
2021/12/27 08:04:13;;;;;;;28.17;18.83;;;;;;;3.63;95.35;99891.31;5053659;28;20467;-84
2021/12/27 08:06:38;;;;;;;26.77;17.60;;;;;;;3.63;95.30;99900.75;5054771;28;20032;-84
2021/12/27 08:09:06;;;;;;;26.33;18.00;;;;;;;3.65;95.07;99904.16;5054079;28;20033;-84
2021/12/27 08:11:31;;;;;;;25.90;18.00;;;;;;;3.64;94.78;99903.31;5054489;28;20028;-84
2021/12/27 08:13:57;;;;;;;23.93;17.00;;;;;;;3.66;94.76;99902.44;5053030;28;20036;-84
2021/12/27 08:16:25;;;;;;;26.57;18.17;;;;;;;3.62;95.05;99905.06;5057110;28;20025;-84
2021/12/27 08:18:52;;;;;;;25.83;17.83;;;;;;;3.65;94.72;99909.31;5053718;28;20021;-84
2021/12/27 08:21:19;;;;;;;24.00;17.27;;;;;;;3.65;94.80;99911.88;5053400;28;20112;-84
2021/12/27 08:23:44;;;;;;;25.30;17.37;;;;;;;3.69;94.98;99912.69;5052968;28;20492;-84
2021/12/27 08:26:09;;;;;;;25.57;17.37;;;;;;;3.69;95.15;99920.41;5056742;28;20032;-84
2021/12/27 08:28:35;;;;;;;26.10;17.77;;;;;;;3.72;94.77;99910.94;5054653;28;20044;-84
2021/12/27 08:31:00;;;;;;;27.20;18.60;;;;;;;3.75;95.14;99915.19;5051817;28;20021;-84
2021/12/27 08:33:25;;;;;;;26.17;18.67;;;;;;;3.78;94.88;99905.69;5051907;28;20029;-84
2021/12/27 08:35:51;;;;;;;26.00;17.40;;;;;;;3.80;95.24;99903.97;5052553;28;20032;-84
2021/12/27 08:38:18;;;;;;;27.40;17.90;;;;;;;3.82;95.11;99905.66;5055709;28;20021;-84
2021/12/27 08:40:43;;;;;;;25.87;17.20;;;;;;;3.86;94.68;99902.19;5039917;28;20036;-84
2021/12/27 08:43:08;;;;;;;23.80;16.60;;;;;;;3.85;94.70;99905.63;5057048;28;20048;-84
2021/12/27 08:45:34;;;;;;;24.13;17.20;;;;;;;3.88;94.81;99906.44;5057333;28;20020;-84
2021/12/27 08:47:59;;;;;;;24.30;17.53;;;;;;;3.91;94.54;99905.56;5053173;28;20054;-84
2021/12/27 08:50:24;;;;;;;24.33;17.60;;;;;;;3.90;94.83;99909.00;5053298;28;20040;-84
2021/12/27 08:52:50;;;;;;;23.60;17.00;;;;;;;3.95;94.79;99896.91;5052600;28;21769;-84
2021/12/27 08:55:16;;;;;;;25.87;17.77;;;;;;;3.97;94.73;99905.47;5054361;28;20029;-84
2021/12/27 08:57:42;;;;;;;24.93;16.83;;;;;;;3.96;94.93;99901.19;5052316;28;20025;-84
2021/12/27 09:00:10;;;;;;;24.83;18.23;;;;;;;3.96;94.47;99893.47;5053403;28;20087;-84
2021/12/27 09:02:36;;;;;;;25.10;17.70;;;;;;;4.00;94.35;99895.13;5052554;28;20029;-84
2021/12/27 09:05:02;;;;;;;28.10;19.33;;;;;;;4.01;94.19;99891.69;5051986;28;20085;-84
2021/12/27 09:07:27;;;;;;;28.10;20.07;;;;;;;4.00;94.36;99887.41;5052397;28;20039;-84
2021/12/27 09:09:53;;;;;;;32.57;22.17;;;;;;;4.00;94.10;99879.69;5051860;28;20123;-84
2021/12/27 09:12:19;;;;;;;31.27;23.43;;;;;;;3.97;93.68;99873.75;5055947;28;20025;-84
2021/12/27 09:14:44;;;;;;;32.23;23.10;;;;;;;3.94;93.43;99867.75;5053611;28;20385;-84
2021/12/27 09:17:10;;;;;;;32.27;23.63;;;;;;;3.91;93.74;99856.66;5052146;28;20507;-85
2021/12/27 09:19:36;;;;;;;30.33;22.17;;;;;;;3.91;93.71;99856.66;5052833;28;20020;-84
2021/12/27 09:22:01;;;;;;;28.33;21.43;;;;;;;3.90;93.50;99858.38;5054012;28;20549;-84
2021/12/27 09:24:28;;;;;;;28.27;21.47;;;;;;;3.86;93.36;99861.03;5054272;28;20412;-84
2021/12/27 09:26:54;;;;;;;32.07;22.23;;;;;;;3.82;93.52;99865.38;5054646;28;20025;-84
2021/12/27 09:29:19;;;;;;;31.93;22.47;;;;;;;3.80;93.14;99883.38;5054752;28;20021;-84
2021/12/27 09:31:44;;;;;;;28.63;21.27;;;;;;;3.80;93.11;99882.53;5055456;28;20029;-84
2021/12/27 09:34:10;;;;;;;26.57;19.00;;;;;;;3.82;93.41;99887.66;5052653;28;20031;-84
2021/12/27 09:36:35;;;;;;;25.90;18.57;;;;;;;3.87;93.45;99889.28;5055231;28;20036;-84
2021/12/27 09:39:01;;;;;;;25.70;18.00;;;;;;;3.92;94.08;99886.69;5049814;28;20426;-84
2021/12/27 09:41:27;;;;;;;26.13;18.23;;;;;;;3.98;93.83;99886.56;5052837;28;20670;-84
2021/12/27 09:43:54;;;;;;;25.77;17.50;;;;;;;4.04;93.59;99893.34;5050007;28;20029;-84
2021/12/27 09:46:20;;;;;;;23.40;17.37;;;;;;;4.10;93.57;99890.69;5051914;28;20073;-84
2021/12/27 09:48:47;;;;;;;24.63;17.93;;;;;;;4.15;94.19;99888.91;5053544;28;20128;-84
2021/12/27 09:51:12;;;;;;;25.40;18.03;;;;;;;4.21;93.45;99875.09;5047630;28;20083;-84
2021/12/27 09:53:39;;;;;;;23.50;17.00;;;;;;;4.25;93.82;99875.03;5048875;28;20036;-84
2021/12/27 09:56:11;;;;;;;23.93;18.13;;;;;;;4.31;93.56;99870.66;5047835;28;20032;-84
2021/12/27 09:58:38;;;;;;;24.73;17.70;;;;;;;4.34;93.40;99871.44;5046775;28;20017;-84
2021/12/27 10:01:05;;;;;;;22.20;16.03;;;;;;;4.38;93.70;99867.97;5050495;28;20029;-84
2021/12/27 10:03:43;;;;;;;21.43;15.33;;;;;;;4.42;93.14;99860.19;5048652;28;20021;-84
2021/12/27 10:06:12;;;;;;;21.33;15.87;;;;;;;4.45;93.24;99857.53;5048283;28;20545;-84
2021/12/27 10:08:38;;;;;;;22.67;15.53;;;;;;;4.48;93.26;99854.91;5046513;28;20024;-84
2021/12/27 10:11:03;;;;;;;18.83;15.17;;;;;;;4.50;93.03;99858.31;5024041;28;20114;-85
2021/12/27 10:13:29;;;;;;;22.10;15.17;;;;;;;4.53;93.53;99855.72;5045324;28;20060;-85
2021/12/27 10:15:55;;;;;;;18.83;14.43;;;;;;;4.56;92.83;99843.63;5042541;28;20037;-85
2021/12/27 10:18:22;;;;;;;20.37;15.00;;;;;;;4.58;93.22;99846.19;5045600;28;20032;-83
2021/12/27 10:20:47;;;;;;;20.83;14.87;;;;;;;4.62;92.95;99840.06;5043580;28;20507;-85
2021/12/27 10:23:14;;;;;;;20.40;15.20;;;;;;;4.65;92.96;99841.78;5042644;28;20065;-86
2021/12/27 10:25:39;;;;;;;20.97;14.10;;;;;;;4.68;92.66;99829.69;5044775;28;20044;-85
2021/12/27 10:28:05;;;;;;;18.63;14.57;;;;;;;4.69;92.97;99818.50;5044130;28;20041;-85
2021/12/27 10:30:33;;;;;;;18.50;14.70;;;;;;;4.68;92.76;99801.34;5044363;28;20036;-88
2021/12/27 10:33:14;;;;;;;18.33;14.10;;;;;;;4.67;92.61;99804.78;5043598;28;20056;-85
2021/12/27 10:35:40;;;;;;;18.20;13.80;;;;;;;4.64;92.21;99816.88;5043851;28;20037;-83
2021/12/27 10:38:15;;;;;;;19.33;13.50;;;;;;;4.62;92.32;99813.47;5043808;28;20039;-84
2021/12/27 10:40:48;;;;;;;17.10;13.33;;;;;;;4.60;92.12;99813.53;5044541;28;20434;-85
2021/12/27 10:43:15;;;;;;;17.30;13.23;;;;;;;4.60;92.43;99812.66;5043539;28;20043;-85
2021/12/27 10:45:45;;;;;;;19.23;13.33;;;;;;;4.62;92.47;99822.03;5043282;28;20033;-85
2021/12/27 10:48:19;;;;;;;17.90;13.40;;;;;;;4.67;92.67;99821.97;5045921;28;20037;-85
2021/12/27 10:50:45;;;;;;;19.33;13.63;;;;;;;4.73;92.61;99823.59;5026032;28;20052;-84
2021/12/27 10:53:12;;;;;;;19.07;14.07;;;;;;;4.80;93.02;99831.19;5044706;28;20052;-85
2021/12/27 10:55:40;;;;;;;18.13;13.77;;;;;;;4.86;92.96;99825.06;5025565;28;20463;-84
2021/12/27 10:58:27;;;;;;;18.33;14.40;;;;;;;4.94;92.90;99820.63;5042349;28;20112;-85
2021/12/27 11:01:03;;;;;;;19.67;14.27;;;;;;;4.96;92.60;99815.44;5043820;28;20212;-84
2021/12/27 11:03:33;;;;;;;16.98;14.07;;;;;;;5.03;92.26;99817.03;5044094;28;20108;-84
2021/12/27 11:06:03;;;;;;;19.67;13.53;;;;;;;5.08;92.06;99804.88;5041203;28;20028;-84
2021/12/27 11:08:29;;;;;;;19.80;13.47;;;;;;;5.18;92.34;99809.88;5040425;28;20080;-84
2021/12/27 11:10:55;;;;;;;19.83;13.80;;;;;;;5.27;92.39;99810.53;5041966;28;20116;-84
2021/12/27 11:13:21;;;;;;;19.40;13.70;;;;;;;5.36;92.22;99813.78;5041479;28;20041;-84
2021/12/27 11:15:46;;;;;;;17.02;13.32;;;;;;;5.45;92.53;99808.44;5041210;28;20054;-87
2021/12/27 11:18:13;;;;;;;16.85;12.63;;;;;;;5.49;91.82;99802.31;5042377;28;20885;-84